Meia Via — CULH2 — position and weather

sailwx.info

Track history (hours):
 
Tides and Currents Weather Stations Pressure Air Temp Water Temp Dewpoint Dewpoint Depression Visibility Wind Speed Wind Dir Waves Ship Positions

Meia Via

Last reported at 2017-Oct-30 20:30 UTC. Time now 2017-Nov-22 16:45 UTC.
Position N 39°21' W 009°23'.
Warning: this ship's position is 22 days out of date.

Length 21 m.

Type: Fishing. MMSI: 263405570.

Date/timePositionNaut miles runAvg speedWind from/ knotsBaromVisibWave heightAir tempDewpointWater temp
2017-Oct-30 20:30N 39°21' W 009°23'4 8.6
2017-Oct-30 20:00N 39°23' W 009°27'2 4.0
2017-Oct-30 19:29N 39°25' W 009°29'0 0.9
2017-Oct-30 19:00N 39°25' W 009°28'1 0.8
2017-Oct-30 17:59N 39°26' W 009°29'2 3.9
2017-Oct-30 17:30N 39°25' W 009°30'4 3.3
2017-Oct-30 16:18N 39°22' W 009°26'3 8.4
2017-Oct-30 16:00N 39°21' W 009°23'  
2017-Oct-27 20:10N 39°21' W 009°23'2 8.5
2017-Oct-27 20:00N 39°22' W 009°25'5 3.5
2017-Oct-27 18:26N 39°26' W 009°28'0 0.9
2017-Oct-27 17:53N 39°26' W 009°28'0 0.6
2017-Oct-27 17:30N 39°26' W 009°28'0 0.4
2017-Oct-27 17:00N 39°26' W 009°28'0 0.4
2017-Oct-27 16:30N 39°26' W 009°28'4 7.3
2017-Oct-27 16:00N 39°23' W 009°26'3 0.1
2017-Oct-26 20:21N 39°21' W 009°23'6 1.6
2017-Oct-26 16:29N 39°26' W 009°27'3 7.2
2017-Oct-26 16:00N 39°23' W 009°26'4 0.1
2017-Oct-24 15:55N 39°20' W 009°23'4 9.3
2017-Oct-24 15:30N 39°16' W 009°23'5 9.4
2017-Oct-24 15:00N 39°11' W 009°23'2 4.5
2017-Oct-24 14:30N 39°09' W 009°23'0 0.2
2017-Oct-24 14:00N 39°09' W 009°23'0 0.1
2017-Oct-24 13:28N 39°09' W 009°23'1 2.3
2017-Oct-24 13:00N 39°10' W 009°23'11 0.6
2017-Oct-23 18:14N 39°21' W 009°23'2 9.7
2017-Oct-23 18:00N 39°19' W 009°24'5 9.4
2017-Oct-23 17:30N 39°14' W 009°24'5 9.5
2017-Oct-23 17:00N 39°09' W 009°25'5 9.6
2017-Oct-23 16:30N 39°04' W 009°26'5 9.5
2017-Oct-23 16:01N 38°60' W 009°27'3 5.8
2017-Oct-23 15:31N 38°57' W 009°26'0 0.6
2017-Oct-23 15:01N 38°57' W 009°26'0 0.3
2017-Oct-23 14:31N 38°57' W 009°27'3 5.6
2017-Oct-23 14:00N 39°00' W 009°27'5 9.6
2017-Oct-23 13:30N 39°05' W 009°26'510.0
2017-Oct-23 13:00N 39°10' W 009°24'510.2
2017-Oct-23 12:30N 39°15' W 009°23'510.5
2017-Oct-23 12:00N 39°20' W 009°23'  
Track history (hours):
 
Tides and Currents Weather Stations Pressure Air Temp Water Temp Dewpoint Dewpoint Depression Visibility Wind Speed Wind Dir Waves Ship Positions

Meia Via

Last reported at 2017-Oct-30 20:30 UTC. Time now 2017-Nov-22 16:45 UTC.
Position N 39°21' W 009°23'.
Warning: this ship's position is 22 days out of date.

Length 21 m.

Type: Fishing. MMSI: 263405570.

Date/timePositionNaut miles runAvg speedWind from/ knotsBaromVisibWave heightAir tempDewpointWater temp
2017-Oct-30 20:30N 39°21' W 009°23'4 8.6
2017-Oct-30 20:00N 39°23' W 009°27'2 4.0
2017-Oct-30 19:29N 39°25' W 009°29'0 0.9
2017-Oct-30 19:00N 39°25' W 009°28'1 0.8
2017-Oct-30 17:59N 39°26' W 009°29'2 3.9
2017-Oct-30 17:30N 39°25' W 009°30'4 3.3
2017-Oct-30 16:18N 39°22' W 009°26'3 8.4
2017-Oct-30 16:00N 39°21' W 009°23'  
2017-Oct-27 20:10N 39°21' W 009°23'2 8.5
2017-Oct-27 20:00N 39°22' W 009°25'5 3.5
2017-Oct-27 18:26N 39°26' W 009°28'0 0.9
2017-Oct-27 17:53N 39°26' W 009°28'0 0.6
2017-Oct-27 17:30N 39°26' W 009°28'0 0.4
2017-Oct-27 17:00N 39°26' W 009°28'0 0.4
2017-Oct-27 16:30N 39°26' W 009°28'4 7.3
2017-Oct-27 16:00N 39°23' W 009°26'3 0.1
2017-Oct-26 20:21N 39°21' W 009°23'6 1.6
2017-Oct-26 16:29N 39°26' W 009°27'3 7.2
2017-Oct-26 16:00N 39°23' W 009°26'4 0.1
2017-Oct-24 15:55N 39°20' W 009°23'4 9.3
2017-Oct-24 15:30N 39°16' W 009°23'5 9.4
2017-Oct-24 15:00N 39°11' W 009°23'2 4.5
2017-Oct-24 14:30N 39°09' W 009°23'0 0.2
2017-Oct-24 14:00N 39°09' W 009°23'0 0.1
2017-Oct-24 13:28N 39°09' W 009°23'1 2.3
2017-Oct-24 13:00N 39°10' W 009°23'11 0.6
2017-Oct-23 18:14N 39°21' W 009°23'2 9.7
2017-Oct-23 18:00N 39°19' W 009°24'5 9.4
2017-Oct-23 17:30N 39°14' W 009°24'5 9.5
2017-Oct-23 17:00N 39°09' W 009°25'5 9.6
2017-Oct-23 16:30N 39°04' W 009°26'5 9.5
2017-Oct-23 16:01N 38°60' W 009°27'3 5.8
2017-Oct-23 15:31N 38°57' W 009°26'0 0.6
2017-Oct-23 15:01N 38°57' W 009°26'0 0.3
2017-Oct-23 14:31N 38°57' W 009°27'3 5.6
2017-Oct-23 14:00N 39°00' W 009°27'5 9.6
2017-Oct-23 13:30N 39°05' W 009°26'510.0
2017-Oct-23 13:00N 39°10' W 009°24'510.2
2017-Oct-23 12:30N 39°15' W 009°23'510.5
2017-Oct-23 12:00N 39°20' W 009°23'  

Dump ship's entire track history